Time;durP1;ratioP1;P1;durP2;ratioP2;P2;SDS_P1;SDS_P2;PMS_P1;PMS_P2;Temp;Humidity;BMP_temperature;BMP_pressure;BME280_temperature;BME280_humidity;BME280_pressure;Samples;Min_cycle;Max_cycle;Signal;HPM_P1;HPM_P2
2022/12/10 00:01:23;;;;;;;50.83;33.18;;;;;;;0.52;100.00;96585.69;1724396;83;21495;-82
2022/12/10 00:03:48;;;;;;;69.03;40.10;;;;;;;0.51;100.00;96583.25;1729241;83;21000;-79
2022/12/10 00:06:17;;;;;;;46.33;31.77;;;;;;;0.46;100.00;96581.88;1729137;83;20916;-78
2022/12/10 00:08:43;;;;;;;56.10;37.90;;;;;;;0.45;100.00;96579.75;1729273;83;21457;-79
2022/12/10 00:11:11;;;;;;;45.03;30.80;;;;;;;0.46;100.00;96575.22;1729284;83;21157;-81
2022/12/10 00:13:37;;;;;;;44.27;28.83;;;;;;;0.44;100.00;96583.47;1729209;82;21058;-79
2022/12/10 00:16:04;;;;;;;105.03;60.00;;;;;;;0.46;100.00;96584.02;1729264;83;21040;-81
2022/12/10 00:18:31;;;;;;;51.88;29.45;;;;;;;0.46;100.00;96579.22;1729152;83;21011;-82
2022/12/10 00:20:56;;;;;;;28.42;18.32;;;;;;;0.45;100.00;96586.41;1729434;83;21015;-81
2022/12/10 00:23:22;;;;;;;29.40;17.12;;;;;;;0.47;100.00;96586.16;1729087;82;21777;-79
2022/12/10 00:25:48;;;;;;;30.15;19.17;;;;;;;0.47;100.00;96588.82;1729336;83;20943;-81
2022/12/10 00:28:14;;;;;;;27.55;18.30;;;;;;;0.44;100.00;96592.80;1729170;82;20885;-79
2022/12/10 00:30:40;;;;;;;29.25;18.73;;;;;;;0.45;100.00;96593.60;1706888;84;20945;-79
2022/12/10 00:33:06;;;;;;;28.40;18.00;;;;;;;0.46;100.00;96592.55;1729024;82;20869;-79
2022/12/10 00:35:36;;;;;;;36.53;21.20;;;;;;;0.45;100.00;96597.60;1707029;84;21910;-82
2022/12/10 00:38:02;;;;;;;46.37;25.82;;;;;;;0.45;100.00;96597.60;1728744;82;21001;-79
2022/12/10 00:40:28;;;;;;;38.53;23.95;;;;;;;0.43;100.00;96596.52;1707125;84;21061;-81
2022/12/10 00:42:54;;;;;;;38.83;22.65;;;;;;;0.43;100.00;96597.05;1728995;83;20881;-79
2022/12/10 00:45:20;;;;;;;66.02;38.28;;;;;;;0.43;100.00;96598.38;1706920;84;20886;-82
2022/12/10 00:47:46;;;;;;;44.20;26.30;;;;;;;0.44;100.00;96597.33;1729091;82;21148;-82
2022/12/10 00:50:12;;;;;;;39.48;25.35;;;;;;;0.42;100.00;96600.22;1706872;84;20863;-78
2022/12/10 00:52:38;;;;;;;54.05;33.10;;;;;;;0.42;100.00;96602.08;1728771;83;21594;-81
2022/12/10 00:55:04;;;;;;;30.45;19.45;;;;;;;0.38;100.00;96607.11;1706969;84;20949;-79
2022/12/10 00:57:30;;;;;;;33.35;20.95;;;;;;;0.38;100.00;96613.77;1728794;83;21008;-81
2022/12/10 00:59:56;;;;;;;27.62;18.25;;;;;;;0.34;100.00;96607.84;1706819;84;21063;-79
2022/12/10 01:02:22;;;;;;;28.62;16.82;;;;;;;0.36;100.00;96611.89;1729195;82;21035;-79
2022/12/10 01:04:53;;;;;;;25.00;15.65;;;;;;;0.39;100.00;96615.91;1729069;83;21015;-82
2022/12/10 01:07:19;;;;;;;26.73;16.77;;;;;;;0.42;100.00;96618.88;1729245;83;21035;-79
2022/12/10 01:09:45;;;;;;;69.20;34.05;;;;;;;0.45;100.00;96622.92;1729028;83;20968;-80
2022/12/10 01:12:11;;;;;;;71.25;43.68;;;;;;;0.45;100.00;96627.72;1729206;83;21829;-82
2022/12/10 01:14:37;;;;;;;34.75;24.32;;;;;;;0.39;100.00;96625.23;1728717;83;20865;-79
2022/12/10 01:17:04;;;;;;;28.62;17.80;;;;;;;0.36;100.00;96633.21;1729211;83;21567;-79
2022/12/10 01:19:32;;;;;;;47.00;26.37;;;;;;;0.33;100.00;96634.22;1728895;82;21500;-82
2022/12/10 01:21:58;;;;;;;58.42;31.82;;;;;;;0.32;100.00;96629.94;1729123;83;21483;-81
2022/12/10 01:24:25;;;;;;;205.77;87.25;;;;;;;0.27;100.00;96640.83;1728980;82;21141;-81
2022/12/10 01:26:51;;;;;;;99.65;55.43;;;;;;;0.26;100.00;96641.08;1729290;83;21071;-79
2022/12/10 01:29:17;;;;;;;96.82;51.28;;;;;;;0.26;100.00;96643.22;1701320;82;20892;-81
2022/12/10 01:31:43;;;;;;;45.98;25.68;;;;;;;0.30;100.00;96643.52;1700161;84;20943;-78
2022/12/10 01:34:12;;;;;;;70.57;38.53;;;;;;;0.32;100.00;96638.73;1699810;84;20977;-79
2022/12/10 01:36:41;;;;;;;32.88;21.62;;;;;;;0.32;100.00;96648.06;1700029;84;21091;-79
2022/12/10 01:39:10;;;;;;;28.98;17.35;;;;;;;0.33;100.00;96645.68;1699069;84;21015;-81
2022/12/10 01:41:46;;;;;;;25.12;15.10;;;;;;;0.34;100.00;96653.95;1700264;84;21031;-79
2022/12/10 01:44:17;;;;;;;122.80;56.80;;;;;;;0.31;100.00;96654.98;1698941;84;21007;-79
2022/12/10 01:46:49;;;;;;;51.00;28.32;;;;;;;0.32;100.00;96659.25;1700268;84;21102;-82
2022/12/10 01:49:18;;;;;;;29.77;16.65;;;;;;;0.31;100.00;96655.78;1699958;84;21618;-79
2022/12/10 01:51:47;;;;;;;45.30;31.25;;;;;;;0.33;100.00;96656.34;1700083;84;21468;-81
2022/12/10 01:54:18;;;;;;;64.70;52.50;;;;;;;0.36;100.00;96649.73;1700044;84;21075;-82
2022/12/10 01:56:46;;;;;;;39.58;27.98;;;;;;;0.36;100.00;96646.53;1700188;84;21027;-79
2022/12/10 01:59:13;;;;;;;35.20;24.40;;;;;;;0.35;100.00;96645.45;1700112;84;21019;-82
2022/12/10 02:02:02;;;;;;;28.92;21.35;;;;;;;0.34;100.00;96642.48;1715481;83;22100;-79
2022/12/10 02:04:56;;;;;;;28.60;20.65;;;;;;;0.33;100.00;96641.68;1728816;83;21047;-79
2022/12/10 02:07:40;;;;;;;24.43;18.25;;;;;;;0.28;100.00;96653.09;1729183;82;21068;-79
2022/12/10 02:10:26;;;;;;;21.45;16.02;;;;;;;0.27;100.00;96656.02;1728741;83;21022;-81
2022/12/10 02:12:58;;;;;;;45.00;28.98;;;;;;;0.30;100.00;96656.04;1728409;83;21000;-79
2022/12/10 02:15:27;;;;;;;27.58;18.57;;;;;;;0.26;100.00;96657.07;1729450;83;21206;-82
2022/12/10 02:17:58;;;;;;;;;;;;;;;0.26;100.00;96662.40;1731900;82;20976;-82
2022/12/10 02:20:41;;;;;;;36.88;27.25;;;;;;;0.28;100.00;96661.63;1700398;83;20246;-79
2022/12/10 02:23:17;;;;;;;34.55;21.75;;;;;;;0.28;100.00;96663.76;1729099;82;21005;-79
2022/12/10 02:25:54;;;;;;;18.20;12.25;;;;;;;0.27;100.00;96654.68;1728596;83;21046;-78
2022/12/10 02:28:32;;;;;;;32.93;20.65;;;;;;;0.30;100.00;96662.17;1712934;83;21269;-79
2022/12/10 02:30:58;;;;;;;25.10;19.35;;;;;;;0.33;100.00;96670.19;1699999;84;21031;-81
2022/12/10 02:33:24;;;;;;;21.95;14.23;;;;;;;0.31;100.00;96662.45;1700224;84;20959;-79
2022/12/10 02:35:50;;;;;;;18.48;12.18;;;;;;;0.34;100.00;96663.27;1700330;84;20948;-78
2022/12/10 02:38:24;;;;;;;19.67;12.20;;;;;;;0.36;100.00;96665.19;1700041;84;21087;-82
2022/12/10 02:40:53;;;;;;;21.27;13.48;;;;;;;0.39;100.00;96671.88;1700279;84;21152;-81
2022/12/10 02:43:18;;;;;;;;;;;;;;;0.41;100.00;96680.42;1702473;84;21023;-81
2022/12/10 02:45:44;;;;;;;32.20;14.25;;;;;;;0.42;100.00;96680.17;1700317;84;20192;-81
2022/12/10 02:48:10;;;;;;;22.27;12.88;;;;;;;0.46;100.00;96681.30;1699996;84;20939;-79
2022/12/10 02:50:36;;;;;;;20.43;13.18;;;;;;;0.46;100.00;96671.97;1700202;84;20916;-81
2022/12/10 02:53:02;;;;;;;27.60;15.75;;;;;;;0.47;100.00;96675.45;1700255;84;21321;-78
2022/12/10 02:55:32;;;;;;;26.73;15.15;;;;;;;0.44;100.00;96671.95;1699860;84;20967;-81
2022/12/10 02:58:12;;;;;;;26.57;15.70;;;;;;;0.44;100.00;96674.62;1672619;84;21056;-81
2022/12/10 03:00:43;;;;;;;28.10;16.67;;;;;;;0.42;100.00;96673.50;1703236;83;21082;-79
2022/12/10 03:03:32;;;;;;;41.98;24.18;;;;;;;0.43;100.00;96680.48;1729106;83;21015;-81
2022/12/10 03:06:22;;;;;;;46.08;31.48;;;;;;;0.41;100.00;96684.42;1729014;83;21070;-79
2022/12/10 03:09:01;;;;;;;30.90;21.40;;;;;;;0.38;100.00;96681.73;1721809;83;21083;-81
2022/12/10 03:11:27;;;;;;;42.67;24.72;;;;;;;0.41;100.00;96685.22;1729449;83;21039;-79
2022/12/10 03:14:18;;;;;;;64.07;37.73;;;;;;;0.44;100.00;96693.27;1729041;83;21577;-82
2022/12/10 03:16:56;;;;;;;44.67;28.32;;;;;;;0.47;100.00;96702.09;1729442;83;21023;-82
2022/12/10 03:19:30;;;;;;;26.35;17.07;;;;;;;0.43;100.00;96699.66;1729020;83;21122;-81
2022/12/10 03:21:56;;;;;;;35.83;23.20;;;;;;;0.46;100.00;96693.83;1729239;82;21078;-79
2022/12/10 03:24:22;;;;;;;20.43;13.38;;;;;;;0.42;100.00;96692.69;1729135;82;20920;-79
2022/12/10 03:26:48;;;;;;;28.45;18.73;;;;;;;0.38;100.00;96692.39;1729333;83;21015;-81
2022/12/10 03:29:19;;;;;;;22.75;13.65;;;;;;;0.42;100.00;96686.03;1702090;83;21091;-79
2022/12/10 03:31:45;;;;;;;25.40;13.85;;;;;;;0.45;100.00;96692.22;1700273;84;21479;-81
2022/12/10 03:34:11;;;;;;;19.80;11.95;;;;;;;0.48;100.00;96695.70;1699902;84;21031;-81
2022/12/10 03:36:38;;;;;;;19.73;10.75;;;;;;;0.50;100.00;96699.73;1671847;84;20939;-81
2022/12/10 03:39:04;;;;;;;27.35;18.62;;;;;;;0.52;100.00;96699.51;1699877;84;21095;-79
2022/12/10 03:41:30;;;;;;;20.62;12.95;;;;;;;0.48;100.00;96699.18;1700069;84;21039;-78
2022/12/10 03:43:58;;;;;;;20.82;11.05;;;;;;;0.50;100.00;96710.92;1700011;84;21872;-82
2022/12/10 03:46:25;;;;;;;29.70;16.70;;;;;;;0.53;100.00;96711.25;1700146;84;21039;-79
2022/12/10 03:48:51;;;;;;;26.15;15.85;;;;;;;0.52;100.00;96706.98;1699964;84;21035;-81
2022/12/10 03:51:18;;;;;;;32.30;17.77;;;;;;;0.52;100.00;96714.17;1700191;84;21015;-78
2022/12/10 03:53:44;;;;;;;28.25;17.67;;;;;;;0.54;100.00;96726.19;1699989;84;21056;-79
2022/12/10 03:56:10;;;;;;;32.10;17.67;;;;;;;0.56;100.00;96721.94;1700144;84;21223;-82
2022/12/10 03:58:36;;;;;;;29.87;17.42;;;;;;;0.55;100.00;96729.13;1671631;84;22433;-79
2022/12/10 04:01:03;;;;;;;23.50;14.20;;;;;;;0.57;100.00;96730.21;1708144;83;20900;-79
2022/12/10 04:03:29;;;;;;;21.42;12.37;;;;;;;0.60;100.00;96729.73;1729141;82;21035;-82
2022/12/10 04:06:02;;;;;;;20.77;12.37;;;;;;;0.61;100.00;96736.67;1729067;82;20975;-79
2022/12/10 04:08:28;;;;;;;19.55;10.98;;;;;;;0.63;100.00;96751.09;1727707;83;21148;-81
2022/12/10 04:10:54;;;;;;;37.25;24.15;;;;;;;0.64;100.00;96759.36;1728899;83;20857;-82
2022/12/10 04:18:49;;;;;;;22.52;13.45;;;;;;;0.58;100.00;96736.34;1729037;83;21059;-78
2022/12/10 04:26:53;;;;;;;29.30;19.60;;;;;;;0.50;100.00;96738.91;1729310;83;21063;-79
2022/12/10 04:29:25;;;;;;;22.80;15.00;;;;;;;0.46;100.00;96734.61;1700945;83;21028;-82
2022/12/10 04:31:50;;;;;;;21.50;12.88;;;;;;;0.45;100.00;96741.00;1700136;84;21051;-82
2022/12/10 04:34:16;;;;;;;26.35;14.70;;;;;;;0.47;100.00;96745.55;1699693;84;21153;-79
2022/12/10 04:36:42;;;;;;;26.65;16.12;;;;;;;0.50;100.00;96753.05;1700189;84;20932;-78
2022/12/10 04:39:11;;;;;;;28.73;17.52;;;;;;;0.50;100.00;96760.23;1699867;84;21055;-79
2022/12/10 04:41:36;;;;;;;24.95;15.10;;;;;;;0.49;100.00;96754.63;1699778;84;21031;-79
2022/12/10 04:44:02;;;;;;;27.13;16.10;;;;;;;0.49;100.00;96755.95;1699951;84;20920;-81
2022/12/10 04:46:28;;;;;;;32.48;19.85;;;;;;;0.51;100.00;96753.34;1700120;84;22016;-78
2022/12/10 04:48:54;;;;;;;30.27;18.35;;;;;;;0.51;100.00;96746.69;1699745;84;21034;-82
2022/12/10 04:51:20;;;;;;;30.45;17.98;;;;;;;0.51;100.00;96750.69;1700119;84;21031;-79
2022/12/10 04:53:46;;;;;;;38.83;22.93;;;;;;;0.55;100.00;96745.66;1700058;84;20916;-81
2022/12/10 04:56:11;;;;;;;25.43;16.42;;;;;;;0.59;100.00;96757.95;1699983;84;21074;-82
2022/12/10 04:58:37;;;;;;;19.70;13.65;;;;;;;0.63;100.00;96764.42;1700039;84;21130;-81
2022/12/10 05:01:05;;;;;;;26.60;15.65;;;;;;;0.63;100.00;96766.55;1708064;83;20876;-81
2022/12/10 05:03:31;;;;;;;35.03;21.97;;;;;;;0.64;100.00;96778.03;1729094;82;21039;-81
2022/12/10 05:06:05;;;;;;;37.03;23.77;;;;;;;0.64;100.00;96784.69;1728983;83;21471;-79
2022/12/10 05:08:31;;;;;;;31.15;20.10;;;;;;;0.58;100.00;96810.47;1727364;83;21031;-82
2022/12/10 05:11:05;;;;;;;27.30;16.95;;;;;;;0.56;100.00;96820.05;1728914;82;21820;-81
2022/12/10 05:13:31;;;;;;;28.92;16.70;;;;;;;0.57;100.00;96831.52;1720640;83;21055;-79
2022/12/10 05:15:57;;;;;;;35.63;20.80;;;;;;;0.52;100.00;96826.93;1729065;83;21618;-79
2022/12/10 05:18:23;;;;;;;39.83;26.48;;;;;;;0.50;100.00;96828.20;1729128;83;21018;-80
2022/12/10 05:20:49;;;;;;;43.25;24.25;;;;;;;0.47;100.00;96826.84;1729037;83;21076;-81
2022/12/10 05:23:29;;;;;;;34.38;23.45;;;;;;;0.46;100.00;96816.43;1728994;83;21080;-81
2022/12/10 05:26:08;;;;;;;33.85;21.80;;;;;;;0.46;100.00;96821.23;1729147;83;21523;-81
2022/12/10 05:28:40;;;;;;;40.60;22.02;;;;;;;0.49;100.00;96831.92;1719234;83;22074;-78
2022/12/10 05:31:08;;;;;;;27.45;18.62;;;;;;;0.52;100.00;96832.80;1709510;83;21037;-79
2022/12/10 05:33:33;;;;;;;30.45;16.80;;;;;;;0.49;100.00;96828.73;1726615;83;21464;-81
2022/12/10 05:36:02;;;;;;;28.07;18.52;;;;;;;0.50;100.00;96825.54;1709574;83;21162;-78
2022/12/10 05:38:29;;;;;;;29.97;18.43;;;;;;;0.50;100.00;96821.02;1729539;83;21000;-79
2022/12/10 05:40:55;;;;;;;23.07;15.95;;;;;;;0.48;100.00;96803.12;1709538;83;21009;-78
2022/12/10 05:43:21;;;;;;;31.10;15.88;;;;;;;0.44;100.00;96790.03;1726381;83;20889;-79
2022/12/10 05:45:47;;;;;;;22.37;14.53;;;;;;;0.45;100.00;96787.64;1709672;83;20968;-78
2022/12/10 05:48:14;;;;;;;24.43;15.10;;;;;;;0.45;100.00;96787.64;1729132;83;21401;-79
2022/12/10 05:50:40;;;;;;;25.72;15.60;;;;;;;0.45;100.00;96788.97;1729091;83;21019;-79
2022/12/10 05:53:06;;;;;;;29.10;14.63;;;;;;;0.45;100.00;96780.17;1729263;83;21014;-82
2022/12/10 05:55:32;;;;;;;23.15;12.50;;;;;;;0.45;100.00;96776.17;1729144;83;21046;-79
2022/12/10 05:58:01;;;;;;;32.28;15.85;;;;;;;0.47;100.00;96778.06;1729262;83;21047;-79
2022/12/10 06:00:28;;;;;;;26.27;14.10;;;;;;;0.46;100.00;96773.26;1728184;83;21071;-79
2022/12/10 06:02:54;;;;;;;30.80;15.25;;;;;;;0.49;100.00;96775.95;1699833;84;21571;-82
2022/12/10 06:05:20;;;;;;;46.23;25.23;;;;;;;0.51;100.00;96772.51;1700106;84;21079;-82
2022/12/10 06:07:46;;;;;;;52.25;29.57;;;;;;;0.55;100.00;96787.78;1700294;84;21008;-81
2022/12/10 06:10:12;;;;;;;42.13;24.75;;;;;;;0.61;100.00;96793.19;1700098;84;20980;-82
2022/12/10 06:12:38;;;;;;;50.33;27.42;;;;;;;0.61;100.00;96797.19;1700237;84;22461;-79
2022/12/10 06:15:05;;;;;;;60.73;30.75;;;;;;;0.58;100.00;96801.13;1670690;84;21091;-82
2022/12/10 06:17:31;;;;;;;65.80;33.23;;;;;;;0.60;100.00;96806.22;1700213;84;21011;-78
2022/12/10 06:19:57;;;;;;;76.22;38.60;;;;;;;0.59;100.00;96814.73;1700305;84;20904;-78
2022/12/10 06:22:23;;;;;;;127.20;54.40;;;;;;;0.59;100.00;96817.41;1700217;84;21052;-79
2022/12/10 06:24:49;;;;;;;97.40;48.13;;;;;;;0.59;100.00;96824.07;1700205;84;21152;-78
2022/12/10 06:27:15;;;;;;;99.20;45.03;;;;;;;0.62;100.00;96826.80;1703167;83;21494;-79
2022/12/10 06:29:41;;;;;;;78.87;37.90;;;;;;;0.61;100.00;96825.98;1706837;84;21663;-81
2022/12/10 06:32:07;;;;;;;68.15;36.55;;;;;;;0.53;100.00;96827.20;1729074;82;20858;-78
2022/12/10 06:34:33;;;;;;;68.12;35.35;;;;;;;0.52;100.00;96834.12;1706875;84;21025;-81
2022/12/10 06:36:59;;;;;;;56.53;34.67;;;;;;;0.56;100.00;96847.23;1728778;82;21248;-78
2022/12/10 06:39:25;;;;;;;70.57;38.83;;;;;;;0.61;100.00;96859.31;1706688;83;21666;-81
2022/12/10 06:41:51;;;;;;;71.87;42.10;;;;;;;0.64;100.00;96868.15;1729323;82;20885;-80
2022/12/10 06:44:17;;;;;;;70.87;33.30;;;;;;;0.68;100.00;96874.59;1706764;84;21024;-78
2022/12/10 06:46:43;;;;;;;59.18;32.20;;;;;;;0.63;100.00;96872.40;1728794;82;20984;-81
2022/12/10 06:49:09;;;;;;;54.13;30.30;;;;;;;0.60;100.00;96873.70;1709701;83;21243;-81
2022/12/10 06:51:35;;;;;;;42.60;25.32;;;;;;;0.58;100.00;96879.78;1729040;83;21039;-78
2022/12/10 06:54:01;;;;;;;44.42;26.25;;;;;;;0.59;100.00;96892.05;1709617;83;20909;-82
2022/12/10 06:56:27;;;;;;;47.93;28.77;;;;;;;0.63;100.00;96905.72;1729246;83;20972;-79
2022/12/10 06:58:53;;;;;;;53.40;30.43;;;;;;;0.66;100.00;96891.89;1709724;83;21028;-82
2022/12/10 07:01:22;;;;;;;41.77;22.50;;;;;;;0.69;100.00;96885.56;1723296;83;21140;-78
2022/12/10 07:03:50;;;;;;;49.88;27.17;;;;;;;0.72;100.00;96895.73;1714721;83;21015;-81
2022/12/10 07:06:17;;;;;;;44.50;26.90;;;;;;;0.73;100.00;96889.88;1714554;83;21069;-79
2022/12/10 07:08:43;;;;;;;55.80;33.20;;;;;;;0.73;100.00;96879.20;1714736;83;21007;-81
2022/12/10 07:11:12;;;;;;;80.57;46.23;;;;;;;0.72;100.00;96874.41;1714521;83;20910;-81
2022/12/10 07:13:38;;;;;;;53.25;34.85;;;;;;;0.73;100.00;96874.68;1714811;83;21798;-81
2022/12/10 07:16:26;;;;;;;53.52;30.68;;;;;;;0.74;100.00;96875.48;1714618;83;20915;-79
2022/12/10 07:18:53;;;;;;;51.95;28.87;;;;;;;0.74;100.00;96874.95;1714955;83;21059;-81
2022/12/10 07:21:28;;;;;;;61.10;32.65;;;;;;;0.76;100.00;96884.05;1714710;83;21021;-81
2022/12/10 07:23:57;;;;;;;55.80;33.65;;;;;;;0.76;100.00;96878.18;1714545;83;21042;-82
2022/12/10 07:26:24;;;;;;;57.13;32.85;;;;;;;0.79;100.00;96874.23;1714585;83;21478;-81
2022/12/10 07:28:50;;;;;;;66.75;40.45;;;;;;;0.85;100.00;96871.91;1719074;83;20981;-81
2022/12/10 07:31:16;;;;;;;68.87;42.25;;;;;;;0.83;100.00;96866.02;1701301;84;21041;-78
2022/12/10 07:33:42;;;;;;;45.23;29.32;;;;;;;0.82;100.00;96860.41;1720821;83;21000;-82
2022/12/10 07:36:09;;;;;;;52.15;30.90;;;;;;;0.84;100.00;96857.77;1701479;84;20982;-78
2022/12/10 07:38:35;;;;;;;64.70;41.98;;;;;;;0.87;100.00;96861.02;1720809;83;22012;-79
2022/12/10 07:41:07;;;;;;;58.58;36.73;;;;;;;0.88;100.00;96858.09;1701248;84;20898;-81
2022/12/10 07:43:36;;;;;;;63.02;36.88;;;;;;;0.91;100.00;96856.26;1694571;83;21466;-81
2022/12/10 07:46:18;;;;;;;59.42;34.25;;;;;;;0.89;100.00;96858.91;1700435;84;21018;-81
2022/12/10 07:48:45;;;;;;;55.15;33.73;;;;;;;0.92;100.00;96857.88;1720737;83;21051;-79
2022/12/10 07:51:11;;;;;;;56.08;33.38;;;;;;;0.95;100.00;96860.06;1701297;84;21502;-81
2022/12/10 07:53:37;;;;;;;51.08;33.70;;;;;;;0.99;100.00;96864.37;1720570;83;21064;-79
2022/12/10 07:56:04;;;;;;;43.17;28.95;;;;;;;1.00;100.00;96871.31;1701508;84;21025;-79
2022/12/10 07:58:30;;;;;;;50.52;33.58;;;;;;;1.01;100.00;96872.92;1721015;83;21017;-82
2022/12/10 08:00:56;;;;;;;44.80;26.50;;;;;;;1.04;100.00;96881.27;1704473;83;21037;-81
2022/12/10 08:03:23;;;;;;;38.65;25.80;;;;;;;1.08;100.00;96887.70;1715183;83;21168;-79
2022/12/10 08:06:04;;;;;;;69.53;29.63;;;;;;;1.10;100.00;96890.93;1703899;82;20995;-81
2022/12/10 08:08:30;;;;;;;80.07;35.95;;;;;;;1.13;100.00;96906.47;1712765;82;21061;-79
2022/12/10 08:11:01;;;;;;;61.37;28.90;;;;;;;1.16;100.00;96911.02;1718917;82;21536;-78
2022/12/10 08:13:28;;;;;;;49.03;27.82;;;;;;;1.14;100.00;96913.94;1687956;82;21499;-81
2022/12/10 08:15:54;;;;;;;49.58;25.08;;;;;;;1.09;100.00;96905.33;1710810;82;21136;-81
2022/12/10 08:18:21;;;;;;;73.97;27.67;;;;;;;1.08;100.00;96913.58;1732030;82;22161;-82
2022/12/10 08:20:46;;;;;;;96.40;33.50;;;;;;;1.08;100.00;96921.59;1734040;82;21033;-82
2022/12/10 08:23:12;;;;;;;89.45;32.33;;;;;;;1.09;100.00;96917.33;1728597;82;20882;-79
2022/12/10 08:25:38;;;;;;;82.22;29.48;;;;;;;1.08;100.00;96924.25;1728215;82;20882;-78
2022/12/10 08:28:04;;;;;;;58.75;24.72;;;;;;;1.08;100.00;96922.92;1708470;82;21181;-79
2022/12/10 08:30:30;;;;;;;49.38;22.55;;;;;;;1.09;100.00;96914.66;1704766;82;20890;-78
2022/12/10 08:32:56;;;;;;;55.40;30.80;;;;;;;1.10;100.00;96917.61;1715145;82;21548;-79
2022/12/10 08:35:22;;;;;;;44.60;23.20;;;;;;;1.11;100.00;96913.08;1706664;82;20905;-79
2022/12/10 08:37:48;;;;;;;39.67;21.25;;;;;;;1.11;100.00;96907.24;1707881;82;20989;-79
2022/12/10 08:40:14;;;;;;;36.42;19.95;;;;;;;1.15;100.00;96905.41;1718673;82;21180;-78
2022/12/10 08:42:39;;;;;;;72.37;33.55;;;;;;;1.07;100.00;96895.44;1711134;82;20968;-78
2022/12/10 08:45:06;;;;;;;235.50;107.25;;;;;;;1.07;100.00;96895.44;1703077;82;21703;-81
2022/12/10 08:47:32;;;;;;;65.90;37.13;;;;;;;0.99;100.00;96899.86;1700653;82;21493;-79
2022/12/10 08:49:58;;;;;;;53.78;36.90;;;;;;;0.90;100.00;96900.00;1703234;83;20850;-82
2022/12/10 08:52:24;;;;;;;135.45;91.92;;;;;;;0.92;100.00;96900.55;1702522;83;21315;-78
2022/12/10 08:54:50;;;;;;;34.18;23.87;;;;;;;1.00;100.00;96900.66;1719875;82;20897;-82
2022/12/10 08:57:16;;;;;;;58.15;36.08;;;;;;;0.93;100.00;96908.02;1712160;83;20885;-79
2022/12/10 08:59:42;;;;;;;110.37;60.50;;;;;;;1.00;100.00;96900.13;1712531;83;20997;-78
2022/12/10 09:02:10;;;;;;;79.22;54.85;;;;;;;1.06;100.00;96896.49;1724680;82;20967;-79
2022/12/10 09:04:36;;;;;;;86.73;56.13;;;;;;;1.11;100.00;96899.24;1698007;83;21169;-82
2022/12/10 09:07:03;;;;;;;117.22;67.75;;;;;;;1.18;100.00;96894.23;1686846;85;21605;-79
2022/12/10 09:09:28;;;;;;;62.23;40.38;;;;;;;1.22;100.00;96894.03;1687470;85;21011;-81
2022/12/10 09:11:54;;;;;;;72.50;45.50;;;;;;;1.25;100.00;96893.00;1712983;82;21520;-79
2022/12/10 09:14:20;;;;;;;40.95;24.85;;;;;;;1.28;100.00;96883.68;1713391;82;20863;-79
2022/12/10 09:16:46;;;;;;;48.65;29.70;;;;;;;1.30;100.00;96880.27;1676544;85;21093;-81
2022/12/10 09:19:12;;;;;;;57.30;34.58;;;;;;;1.36;100.00;96884.59;1676645;85;22446;-81
2022/12/10 09:21:38;;;;;;;62.00;38.63;;;;;;;1.45;100.00;96888.96;1676771;85;20889;-78
2022/12/10 09:24:05;;;;;;;42.93;29.18;;;;;;;1.52;100.00;96889.05;1676659;85;20945;-81
2022/12/10 09:26:31;;;;;;;77.42;43.02;;;;;;;1.57;100.00;96888.33;1676818;85;21053;-81
2022/12/10 09:28:57;;;;;;;70.85;41.30;;;;;;;1.53;100.00;96880.52;1694252;82;21110;-79
2022/12/10 09:31:24;;;;;;;49.98;28.85;;;;;;;1.52;100.00;96880.23;1712295;83;21011;-82
2022/12/10 09:33:53;;;;;;;28.50;18.42;;;;;;;1.54;100.00;96882.96;1655161;85;21044;-80
2022/12/10 09:36:19;;;;;;;74.53;38.80;;;;;;;1.51;100.00;96886.11;1712534;83;21023;-81
2022/12/10 09:38:45;;;;;;;79.92;46.80;;;;;;;1.54;100.00;96886.97;1687006;85;21083;-81
2022/12/10 09:41:26;;;;;;;43.40;29.18;;;;;;;1.61;100.00;96878.21;1687242;85;21144;-81
2022/12/10 09:44:40;;;;;;;54.05;31.07;;;;;;;1.69;100.00;96881.78;1681173;85;21111;-82
2022/12/10 09:47:09;;;;;;;49.58;30.25;;;;;;;1.58;100.00;96873.38;1712672;83;21488;-79
2022/12/10 09:49:46;;;;;;;38.28;23.77;;;;;;;1.68;100.00;96880.70;1682493;85;21092;-79
2022/12/10 09:52:18;;;;;;;43.28;29.67;;;;;;;1.60;100.00;96876.60;1712385;83;21019;-79
2022/12/10 09:54:53;;;;;;;52.70;39.30;;;;;;;1.65;100.00;96880.67;1682638;85;21094;-81
2022/12/10 09:57:24;;;;;;;118.40;65.37;;;;;;;1.62;100.00;96879.85;1699589;83;21071;-78
2022/12/10 09:59:51;;;;;;;81.28;47.67;;;;;;;1.58;100.00;96878.72;1687677;83;21107;-78
2022/12/10 10:02:30;;;;;;;81.78;43.48;;;;;;;1.60;100.00;96869.13;1686791;85;21031;-79
2022/12/10 10:05:09;;;;;;;;;;;;;;;1.60;100.00;96873.12;1661521;84;21058;-81
2022/12/10 10:07:39;;;;;;;67.32;39.73;;;;;;;1.68;100.00;96865.48;1703729;84;21716;-81
2022/12/10 10:10:09;;;;;;;64.42;38.55;;;;;;;1.66;100.00;96873.47;1694493;83;21017;-81
2022/12/10 10:12:35;;;;;;;76.67;42.48;;;;;;;1.72;100.00;96867.66;1711971;83;21173;-82
2022/12/10 10:15:15;;;;;;;57.62;32.78;;;;;;;1.76;100.00;96864.75;1659875;85;21488;-81
2022/12/10 10:17:45;;;;;;;37.93;22.35;;;;;;;1.83;100.00;96864.03;1692397;83;21166;-79
2022/12/10 10:20:09;;;;;;;43.40;22.95;;;;;;;1.87;100.00;96861.13;1688772;83;21304;-79
2022/12/10 10:22:35;;;;;;;35.03;20.08;;;;;;;1.89;100.00;96869.19;1724564;82;21086;-81
2022/12/10 10:25:02;;;;;;;32.23;18.05;;;;;;;1.91;100.00;96865.72;1712506;83;21072;-78
2022/12/10 10:27:29;;;;;;;37.05;20.70;;;;;;;1.92;100.00;96867.34;1731218;82;21088;-81
2022/12/10 10:29:57;;;;;;;39.60;23.07;;;;;;;1.95;100.00;96864.68;1721235;82;21046;-81
2022/12/10 10:32:38;;;;;;;34.90;19.80;;;;;;;1.95;100.00;96868.16;1725434;82;21947;-78
2022/12/10 10:35:05;;;;;;;36.88;20.55;;;;;;;2.00;100.00;96862.06;1718410;82;21037;-79
2022/12/10 10:37:40;;;;;;;36.90;23.30;;;;;;;1.98;100.00;96860.98;1722037;82;21037;-81
2022/12/10 10:40:21;;;;;;;36.35;20.92;;;;;;;1.96;100.00;96863.08;1724056;82;21087;-78
2022/12/10 10:42:47;;;;;;;36.90;21.90;;;;;;;1.99;100.00;96869.81;1741930;82;21010;-79
2022/12/10 10:45:40;;;;;;;40.15;21.93;;;;;;;1.97;100.00;96870.60;1742055;82;21104;-81
2022/12/10 10:48:16;;;;;;;53.80;27.75;;;;;;;1.97;100.00;96863.92;1721261;82;21080;-81
2022/12/10 10:50:54;;;;;;;48.33;25.92;;;;;;;1.97;100.00;96858.58;1712455;83;21050;-81
2022/12/10 10:53:30;;;;;;;46.92;24.63;;;;;;;1.97;100.00;96863.92;1716811;82;26596;-79
2022/12/10 10:56:20;;;;;;;48.92;27.37;;;;;;;1.94;100.00;96866.55;1712598;82;21013;-79
2022/12/10 10:59:20;;;;;;;42.45;21.23;;;;;;;1.92;100.00;96870.00;1728905;82;21151;-81
2022/12/10 11:01:54;;;;;;;107.95;62.78;;;;;;;1.89;100.00;96869.72;1724583;82;21001;-81
2022/12/10 11:04:37;;;;;;;73.20;46.48;;;;;;;1.86;100.00;96858.98;1725267;82;21066;-81
2022/12/10 11:07:05;;;;;;;55.90;32.33;;;;;;;1.87;100.00;96862.45;1717573;82;21030;-81
2022/12/10 11:09:34;;;;;;;48.90;27.62;;;;;;;1.80;100.00;96870.70;1728391;82;21089;-81
2022/12/10 11:12:23;;;;;;;48.20;24.85;;;;;;;1.73;100.00;96866.61;1673556;82;22203;-78
2022/12/10 11:14:49;;;;;;;;;;;;;;;1.69;100.00;96867.09;1677624;82;21065;-79
2022/12/10 11:17:21;;;;;;;42.90;22.80;;;;;;;1.65;100.00;96864.66;1723044;82;21133;-81
2022/12/10 11:19:57;;;;;;;62.58;33.70;;;;;;;1.66;100.00;96862.26;1712448;83;21062;-79
2022/12/10 11:22:33;;;;;;;67.20;35.68;;;;;;;1.66;100.00;96853.44;1753893;80;21010;-81
2022/12/10 11:25:00;;;;;;;59.77;34.92;;;;;;;1.67;100.00;96859.05;1735117;82;21969;-79
2022/12/10 11:27:51;;;;;;;61.58;35.15;;;;;;;1.66;100.00;96858.25;1718322;82;21030;-81
2022/12/10 11:30:22;;;;;;;52.17;28.80;;;;;;;1.68;100.00;96860.67;1722957;82;21041;-78
2022/12/10 11:33:24;;;;;;;51.48;28.47;;;;;;;1.68;100.00;96866.81;1725294;82;21206;-79
2022/12/10 11:36:10;;;;;;;50.83;27.45;;;;;;;1.68;100.00;96872.16;1713678;82;21409;-79
2022/12/10 11:38:57;;;;;;;52.58;28.62;;;;;;;1.69;100.00;96863.08;1708807;82;21128;-79